sensor_id;sensor_type;location;lat;lon;timestamp;P1;durP1;ratioP1;P2;durP2;ratioP2
18653;SDS011;9456;47.824;16.228;2024-03-08T00:00:29;25.33;;;22.10;;
18653;SDS011;9456;47.824;16.228;2024-03-08T00:02:57;27.90;;;22.00;;
18653;SDS011;9456;47.824;16.228;2024-03-08T00:05:25;27.73;;;22.87;;
18653;SDS011;9456;47.824;16.228;2024-03-08T00:07:53;30.03;;;23.87;;
18653;SDS011;9456;47.824;16.228;2024-03-08T00:10:21;30.13;;;24.70;;
18653;SDS011;9456;47.824;16.228;2024-03-08T00:12:49;31.70;;;25.80;;
18653;SDS011;9456;47.824;16.228;2024-03-08T00:15:17;30.57;;;24.70;;
18653;SDS011;9456;47.824;16.228;2024-03-08T00:17:45;32.43;;;25.17;;
18653;SDS011;9456;47.824;16.228;2024-03-08T00:20:13;33.13;;;26.83;;
18653;SDS011;9456;47.824;16.228;2024-03-08T00:22:41;36.13;;;26.13;;
18653;SDS011;9456;47.824;16.228;2024-03-08T00:25:09;34.10;;;25.73;;
18653;SDS011;9456;47.824;16.228;2024-03-08T00:27:37;33.70;;;26.10;;
18653;SDS011;9456;47.824;16.228;2024-03-08T00:30:08;35.57;;;26.90;;
18653;SDS011;9456;47.824;16.228;2024-03-08T00:32:36;34.63;;;25.20;;
18653;SDS011;9456;47.824;16.228;2024-03-08T00:35:05;36.43;;;26.20;;
18653;SDS011;9456;47.824;16.228;2024-03-08T00:37:33;36.80;;;27.87;;
18653;SDS011;9456;47.824;16.228;2024-03-08T00:40:02;33.00;;;24.93;;
18653;SDS011;9456;47.824;16.228;2024-03-08T00:42:30;34.97;;;26.13;;
18653;SDS011;9456;47.824;16.228;2024-03-08T00:44:58;35.37;;;26.33;;
18653;SDS011;9456;47.824;16.228;2024-03-08T00:47:26;33.13;;;24.93;;
18653;SDS011;9456;47.824;16.228;2024-03-08T00:49:54;37.47;;;27.00;;
18653;SDS011;9456;47.824;16.228;2024-03-08T00:52:23;38.90;;;27.90;;
18653;SDS011;9456;47.824;16.228;2024-03-08T00:54:51;36.20;;;27.47;;
18653;SDS011;9456;47.824;16.228;2024-03-08T00:57:21;40.17;;;28.73;;
18653;SDS011;9456;47.824;16.228;2024-03-08T00:59:49;38.43;;;27.87;;
18653;SDS011;9456;47.824;16.228;2024-03-08T01:02:17;34.27;;;27.93;;
18653;SDS011;9456;47.824;16.228;2024-03-08T01:04:45;41.00;;;28.60;;
18653;SDS011;9456;47.824;16.228;2024-03-08T01:07:14;37.63;;;26.83;;
18653;SDS011;9456;47.824;16.228;2024-03-08T01:09:42;35.50;;;28.03;;
18653;SDS011;9456;47.824;16.228;2024-03-08T01:12:10;34.70;;;25.80;;
18653;SDS011;9456;47.824;16.228;2024-03-08T01:14:38;33.53;;;26.13;;
18653;SDS011;9456;47.824;16.228;2024-03-08T01:17:06;34.90;;;27.20;;
18653;SDS011;9456;47.824;16.228;2024-03-08T01:19:35;36.07;;;26.73;;
18653;SDS011;9456;47.824;16.228;2024-03-08T01:22:03;37.13;;;27.70;;
18653;SDS011;9456;47.824;16.228;2024-03-08T01:24:31;37.90;;;27.87;;
18653;SDS011;9456;47.824;16.228;2024-03-08T01:26:59;38.30;;;27.20;;
18653;SDS011;9456;47.824;16.228;2024-03-08T01:29:27;37.93;;;28.27;;
18653;SDS011;9456;47.824;16.228;2024-03-08T01:31:55;37.47;;;27.30;;
18653;SDS011;9456;47.824;16.228;2024-03-08T01:34:23;37.43;;;28.00;;
18653;SDS011;9456;47.824;16.228;2024-03-08T01:36:51;38.40;;;28.10;;
18653;SDS011;9456;47.824;16.228;2024-03-08T01:42:08;42.13;;;28.30;;
18653;SDS011;9456;47.824;16.228;2024-03-08T01:44:36;36.00;;;27.57;;
18653;SDS011;9456;47.824;16.228;2024-03-08T01:47:04;37.87;;;28.57;;
18653;SDS011;9456;47.824;16.228;2024-03-08T01:49:33;35.97;;;27.07;;
18653;SDS011;9456;47.824;16.228;2024-03-08T01:52:01;34.13;;;26.40;;
18653;SDS011;9456;47.824;16.228;2024-03-08T01:54:29;35.37;;;25.70;;
18653;SDS011;9456;47.824;16.228;2024-03-08T01:56:57;34.83;;;27.07;;
18653;SDS011;9456;47.824;16.228;2024-03-08T01:59:25;33.17;;;26.33;;
18653;SDS011;9456;47.824;16.228;2024-03-08T02:01:53;32.97;;;26.57;;
18653;SDS011;9456;47.824;16.228;2024-03-08T02:04:23;32.03;;;24.83;;
18653;SDS011;9456;47.824;16.228;2024-03-08T02:06:51;32.60;;;26.00;;
18653;SDS011;9456;47.824;16.228;2024-03-08T02:09:23;33.93;;;25.73;;
18653;SDS011;9456;47.824;16.228;2024-03-08T02:11:52;32.37;;;23.70;;
18653;SDS011;9456;47.824;16.228;2024-03-08T02:14:20;30.83;;;24.23;;
18653;SDS011;9456;47.824;16.228;2024-03-08T02:16:49;34.10;;;25.47;;
18653;SDS011;9456;47.824;16.228;2024-03-08T02:19:18;32.57;;;25.27;;
18653;SDS011;9456;47.824;16.228;2024-03-08T02:21:47;34.87;;;26.00;;
18653;SDS011;9456;47.824;16.228;2024-03-08T02:24:15;35.67;;;25.47;;
18653;SDS011;9456;47.824;16.228;2024-03-08T02:26:43;32.53;;;25.90;;
18653;SDS011;9456;47.824;16.228;2024-03-08T02:29:12;32.77;;;24.37;;
18653;SDS011;9456;47.824;16.228;2024-03-08T02:31:40;29.90;;;23.63;;
18653;SDS011;9456;47.824;16.228;2024-03-08T02:34:08;31.83;;;25.03;;
18653;SDS011;9456;47.824;16.228;2024-03-08T02:36:37;31.37;;;24.37;;
18653;SDS011;9456;47.824;16.228;2024-03-08T02:39:05;32.80;;;25.47;;
18653;SDS011;9456;47.824;16.228;2024-03-08T02:41:33;30.17;;;23.30;;
18653;SDS011;9456;47.824;16.228;2024-03-08T02:44:01;29.87;;;24.40;;
18653;SDS011;9456;47.824;16.228;2024-03-08T02:46:29;33.90;;;25.73;;
18653;SDS011;9456;47.824;16.228;2024-03-08T02:48:57;29.23;;;24.33;;
18653;SDS011;9456;47.824;16.228;2024-03-08T02:51:25;27.80;;;22.90;;
18653;SDS011;9456;47.824;16.228;2024-03-08T02:53:54;26.53;;;22.33;;
18653;SDS011;9456;47.824;16.228;2024-03-08T02:56:22;26.83;;;22.43;;
18653;SDS011;9456;47.824;16.228;2024-03-08T03:01:53;26.67;;;21.80;;
18653;SDS011;9456;47.824;16.228;2024-03-08T03:04:21;26.90;;;22.13;;
18653;SDS011;9456;47.824;16.228;2024-03-08T03:06:50;24.87;;;21.40;;
18653;SDS011;9456;47.824;16.228;2024-03-08T03:09:18;25.80;;;21.60;;
18653;SDS011;9456;47.824;16.228;2024-03-08T03:11:46;26.53;;;22.17;;
18653;SDS011;9456;47.824;16.228;2024-03-08T03:14:14;27.30;;;23.07;;
18653;SDS011;9456;47.824;16.228;2024-03-08T03:16:42;27.87;;;22.40;;
18653;SDS011;9456;47.824;16.228;2024-03-08T03:19:10;30.03;;;23.87;;
18653;SDS011;9456;47.824;16.228;2024-03-08T03:21:39;27.13;;;22.57;;
18653;SDS011;9456;47.824;16.228;2024-03-08T03:24:07;28.73;;;23.40;;
18653;SDS011;9456;47.824;16.228;2024-03-08T03:26:36;31.33;;;24.97;;
18653;SDS011;9456;47.824;16.228;2024-03-08T03:29:11;31.63;;;24.03;;
18653;SDS011;9456;47.824;16.228;2024-03-08T03:31:40;33.03;;;24.03;;
18653;SDS011;9456;47.824;16.228;2024-03-08T03:34:08;34.03;;;25.30;;
18653;SDS011;9456;47.824;16.228;2024-03-08T03:36:36;34.57;;;25.50;;
18653;SDS011;9456;47.824;16.228;2024-03-08T03:39:04;36.17;;;26.70;;
18653;SDS011;9456;47.824;16.228;2024-03-08T03:41:34;37.17;;;26.40;;
18653;SDS011;9456;47.824;16.228;2024-03-08T03:44:02;38.17;;;27.40;;
18653;SDS011;9456;47.824;16.228;2024-03-08T03:46:32;39.07;;;27.80;;
18653;SDS011;9456;47.824;16.228;2024-03-08T03:48:59;35.70;;;27.00;;
18653;SDS011;9456;47.824;16.228;2024-03-08T03:51:27;37.40;;;27.23;;
18653;SDS011;9456;47.824;16.228;2024-03-08T03:53:55;38.90;;;28.03;;
18653;SDS011;9456;47.824;16.228;2024-03-08T03:56:25;41.23;;;29.17;;
18653;SDS011;9456;47.824;16.228;2024-03-08T03:58:54;39.33;;;28.77;;
18653;SDS011;9456;47.824;16.228;2024-03-08T04:01:22;41.87;;;29.63;;
18653;SDS011;9456;47.824;16.228;2024-03-08T04:03:50;40.93;;;29.57;;
18653;SDS011;9456;47.824;16.228;2024-03-08T04:06:18;40.37;;;30.17;;
18653;SDS011;9456;47.824;16.228;2024-03-08T04:08:46;40.07;;;30.43;;
18653;SDS011;9456;47.824;16.228;2024-03-08T04:11:14;41.07;;;29.77;;
18653;SDS011;9456;47.824;16.228;2024-03-08T04:13:42;43.97;;;30.30;;
18653;SDS011;9456;47.824;16.228;2024-03-08T04:16:10;40.00;;;29.80;;
18653;SDS011;9456;47.824;16.228;2024-03-08T04:18:38;40.77;;;28.40;;
18653;SDS011;9456;47.824;16.228;2024-03-08T04:21:06;39.50;;;28.00;;
18653;SDS011;9456;47.824;16.228;2024-03-08T04:23:37;41.97;;;29.63;;
18653;SDS011;9456;47.824;16.228;2024-03-08T04:26:05;40.23;;;29.33;;
18653;SDS011;9456;47.824;16.228;2024-03-08T04:28:33;39.20;;;27.83;;
18653;SDS011;9456;47.824;16.228;2024-03-08T04:31:01;39.87;;;29.57;;
18653;SDS011;9456;47.824;16.228;2024-03-08T04:33:30;40.83;;;28.63;;
18653;SDS011;9456;47.824;16.228;2024-03-08T04:35:58;41.67;;;28.43;;
18653;SDS011;9456;47.824;16.228;2024-03-08T04:38:26;36.37;;;27.77;;
18653;SDS011;9456;47.824;16.228;2024-03-08T04:40:54;43.50;;;29.87;;
18653;SDS011;9456;47.824;16.228;2024-03-08T04:43:22;41.17;;;28.50;;
18653;SDS011;9456;47.824;16.228;2024-03-08T04:45:50;37.37;;;28.17;;
18653;SDS011;9456;47.824;16.228;2024-03-08T04:48:18;37.17;;;27.80;;
18653;SDS011;9456;47.824;16.228;2024-03-08T04:50:46;36.40;;;27.10;;
18653;SDS011;9456;47.824;16.228;2024-03-08T04:53:14;36.33;;;25.13;;
18653;SDS011;9456;47.824;16.228;2024-03-08T04:55:42;37.87;;;26.60;;
18653;SDS011;9456;47.824;16.228;2024-03-08T04:58:10;34.50;;;26.40;;
18653;SDS011;9456;47.824;16.228;2024-03-08T05:00:38;32.77;;;25.97;;
18653;SDS011;9456;47.824;16.228;2024-03-08T05:03:06;32.27;;;25.03;;
18653;SDS011;9456;47.824;16.228;2024-03-08T05:05:34;35.93;;;26.03;;
18653;SDS011;9456;47.824;16.228;2024-03-08T05:08:02;35.93;;;26.70;;
18653;SDS011;9456;47.824;16.228;2024-03-08T05:10:30;32.10;;;24.87;;
18653;SDS011;9456;47.824;16.228;2024-03-08T05:12:58;32.23;;;25.10;;
18653;SDS011;9456;47.824;16.228;2024-03-08T05:15:26;37.00;;;27.67;;
18653;SDS011;9456;47.824;16.228;2024-03-08T05:17:58;32.87;;;25.07;;
18653;SDS011;9456;47.824;16.228;2024-03-08T05:20:27;35.53;;;26.07;;
18653;SDS011;9456;47.824;16.228;2024-03-08T05:22:55;37.03;;;27.50;;
18653;SDS011;9456;47.824;16.228;2024-03-08T05:25:23;35.20;;;27.23;;
18653;SDS011;9456;47.824;16.228;2024-03-08T05:27:51;36.37;;;26.40;;
18653;SDS011;9456;47.824;16.228;2024-03-08T05:30:19;35.63;;;28.07;;
18653;SDS011;9456;47.824;16.228;2024-03-08T05:32:47;39.37;;;28.33;;
18653;SDS011;9456;47.824;16.228;2024-03-08T05:35:15;36.50;;;27.47;;
18653;SDS011;9456;47.824;16.228;2024-03-08T05:37:43;34.67;;;25.87;;
18653;SDS011;9456;47.824;16.228;2024-03-08T05:40:12;35.43;;;26.97;;
18653;SDS011;9456;47.824;16.228;2024-03-08T05:42:39;38.33;;;28.57;;
18653;SDS011;9456;47.824;16.228;2024-03-08T05:45:08;40.63;;;27.60;;
18653;SDS011;9456;47.824;16.228;2024-03-08T05:47:38;38.60;;;28.43;;
18653;SDS011;9456;47.824;16.228;2024-03-08T05:50:06;39.50;;;28.53;;
18653;SDS011;9456;47.824;16.228;2024-03-08T05:52:35;37.67;;;28.13;;
18653;SDS011;9456;47.824;16.228;2024-03-08T05:55:03;40.13;;;27.17;;
18653;SDS011;9456;47.824;16.228;2024-03-08T05:57:31;39.47;;;27.33;;
18653;SDS011;9456;47.824;16.228;2024-03-08T05:59:59;39.13;;;27.07;;
18653;SDS011;9456;47.824;16.228;2024-03-08T06:02:27;34.40;;;25.13;;
18653;SDS011;9456;47.824;16.228;2024-03-08T06:04:55;32.83;;;25.23;;
18653;SDS011;9456;47.824;16.228;2024-03-08T06:07:23;32.20;;;24.73;;
18653;SDS011;9456;47.824;16.228;2024-03-08T06:09:51;33.97;;;24.30;;
18653;SDS011;9456;47.824;16.228;2024-03-08T06:12:19;31.93;;;24.80;;
18653;SDS011;9456;47.824;16.228;2024-03-08T06:14:47;31.40;;;24.07;;
18653;SDS011;9456;47.824;16.228;2024-03-08T06:17:15;32.23;;;24.50;;
18653;SDS011;9456;47.824;16.228;2024-03-08T06:19:43;32.10;;;24.50;;
18653;SDS011;9456;47.824;16.228;2024-03-08T06:22:11;35.00;;;25.37;;
18653;SDS011;9456;47.824;16.228;2024-03-08T06:24:39;34.57;;;24.07;;
18653;SDS011;9456;47.824;16.228;2024-03-08T06:27:08;29.53;;;23.90;;
18653;SDS011;9456;47.824;16.228;2024-03-08T06:29:37;33.23;;;24.27;;
18653;SDS011;9456;47.824;16.228;2024-03-08T06:32:06;30.60;;;25.10;;
18653;SDS011;9456;47.824;16.228;2024-03-08T06:34:34;29.57;;;23.10;;
18653;SDS011;9456;47.824;16.228;2024-03-08T06:37:02;27.40;;;23.10;;
18653;SDS011;9456;47.824;16.228;2024-03-08T06:39:30;27.43;;;22.60;;
18653;SDS011;9456;47.824;16.228;2024-03-08T06:41:58;26.07;;;21.80;;
18653;SDS011;9456;47.824;16.228;2024-03-08T06:44:26;24.37;;;21.67;;
18653;SDS011;9456;47.824;16.228;2024-03-08T06:46:54;25.50;;;22.30;;
18653;SDS011;9456;47.824;16.228;2024-03-08T06:49:22;26.10;;;22.03;;
18653;SDS011;9456;47.824;16.228;2024-03-08T06:51:50;25.47;;;21.73;;
18653;SDS011;9456;47.824;16.228;2024-03-08T06:54:18;26.03;;;21.87;;
18653;SDS011;9456;47.824;16.228;2024-03-08T06:56:53;27.40;;;21.63;;
18653;SDS011;9456;47.824;16.228;2024-03-08T06:59:21;26.30;;;21.87;;
18653;SDS011;9456;47.824;16.228;2024-03-08T07:01:49;26.57;;;21.27;;
18653;SDS011;9456;47.824;16.228;2024-03-08T07:04:17;25.50;;;22.03;;
18653;SDS011;9456;47.824;16.228;2024-03-08T07:06:45;25.17;;;21.03;;
18653;SDS011;9456;47.824;16.228;2024-03-08T07:09:16;24.43;;;21.33;;
18653;SDS011;9456;47.824;16.228;2024-03-08T07:11:47;27.80;;;21.93;;
18653;SDS011;9456;47.824;16.228;2024-03-08T07:14:15;26.97;;;22.23;;
18653;SDS011;9456;47.824;16.228;2024-03-08T07:16:43;27.83;;;22.67;;
18653;SDS011;9456;47.824;16.228;2024-03-08T07:19:11;27.60;;;22.87;;
18653;SDS011;9456;47.824;16.228;2024-03-08T07:21:39;24.20;;;21.43;;
18653;SDS011;9456;47.824;16.228;2024-03-08T07:24:07;25.43;;;21.97;;
18653;SDS011;9456;47.824;16.228;2024-03-08T07:26:41;27.10;;;22.00;;
18653;SDS011;9456;47.824;16.228;2024-03-08T07:29:09;24.30;;;20.90;;
18653;SDS011;9456;47.824;16.228;2024-03-08T07:31:40;25.07;;;20.53;;
18653;SDS011;9456;47.824;16.228;2024-03-08T07:34:12;28.50;;;22.03;;
18653;SDS011;9456;47.824;16.228;2024-03-08T07:36:40;26.43;;;22.37;;
18653;SDS011;9456;47.824;16.228;2024-03-08T07:39:08;28.80;;;22.80;;
18653;SDS011;9456;47.824;16.228;2024-03-08T07:41:37;24.90;;;21.37;;
18653;SDS011;9456;47.824;16.228;2024-03-08T07:44:05;23.97;;;20.70;;
18653;SDS011;9456;47.824;16.228;2024-03-08T07:46:33;24.43;;;20.80;;
18653;SDS011;9456;47.824;16.228;2024-03-08T07:49:01;25.57;;;21.77;;
18653;SDS011;9456;47.824;16.228;2024-03-08T07:51:29;24.20;;;21.30;;
18653;SDS011;9456;47.824;16.228;2024-03-08T07:53:58;23.07;;;20.33;;
18653;SDS011;9456;47.824;16.228;2024-03-08T07:56:26;24.23;;;20.10;;
18653;SDS011;9456;47.824;16.228;2024-03-08T07:58:54;22.23;;;19.70;;
18653;SDS011;9456;47.824;16.228;2024-03-08T08:01:22;24.50;;;20.93;;
18653;SDS011;9456;47.824;16.228;2024-03-08T08:03:50;22.63;;;20.20;;
18653;SDS011;9456;47.824;16.228;2024-03-08T08:06:18;24.97;;;19.83;;
18653;SDS011;9456;47.824;16.228;2024-03-08T08:08:46;25.57;;;20.97;;
18653;SDS011;9456;47.824;16.228;2024-03-08T08:11:14;24.43;;;19.73;;
18653;SDS011;9456;47.824;16.228;2024-03-08T08:13:42;24.70;;;21.23;;
18653;SDS011;9456;47.824;16.228;2024-03-08T08:16:11;23.83;;;21.23;;
18653;SDS011;9456;47.824;16.228;2024-03-08T08:18:39;22.57;;;20.17;;
18653;SDS011;9456;47.824;16.228;2024-03-08T08:21:07;23.87;;;21.00;;
18653;SDS011;9456;47.824;16.228;2024-03-08T08:23:35;23.93;;;20.43;;
18653;SDS011;9456;47.824;16.228;2024-03-08T08:26:06;24.40;;;20.00;;
18653;SDS011;9456;47.824;16.228;2024-03-08T08:28:34;23.00;;;20.43;;
18653;SDS011;9456;47.824;16.228;2024-03-08T08:31:02;21.70;;;19.03;;
18653;SDS011;9456;47.824;16.228;2024-03-08T08:33:30;22.23;;;19.03;;
18653;SDS011;9456;47.824;16.228;2024-03-08T08:35:58;21.23;;;18.93;;
18653;SDS011;9456;47.824;16.228;2024-03-08T08:38:26;22.30;;;19.27;;
18653;SDS011;9456;47.824;16.228;2024-03-08T08:40:54;21.67;;;19.30;;
18653;SDS011;9456;47.824;16.228;2024-03-08T08:43:22;20.83;;;18.63;;
18653;SDS011;9456;47.824;16.228;2024-03-08T08:45:51;20.00;;;17.90;;
18653;SDS011;9456;47.824;16.228;2024-03-08T08:48:19;20.00;;;17.90;;
18653;SDS011;9456;47.824;16.228;2024-03-08T08:50:47;20.13;;;18.07;;
18653;SDS011;9456;47.824;16.228;2024-03-08T08:53:15;19.50;;;17.50;;
18653;SDS011;9456;47.824;16.228;2024-03-08T08:55:43;18.47;;;16.57;;
18653;SDS011;9456;47.824;16.228;2024-03-08T08:58:11;18.27;;;16.47;;
18653;SDS011;9456;47.824;16.228;2024-03-08T09:00:39;17.70;;;15.90;;
18653;SDS011;9456;47.824;16.228;2024-03-08T09:03:07;19.53;;;17.63;;
18653;SDS011;9456;47.824;16.228;2024-03-08T09:05:35;17.90;;;16.10;;
18653;SDS011;9456;47.824;16.228;2024-03-08T09:08:04;19.67;;;16.80;;
18653;SDS011;9456;47.824;16.228;2024-03-08T09:10:32;19.17;;;17.27;;
18653;SDS011;9456;47.824;16.228;2024-03-08T09:13:00;18.63;;;16.80;;
18653;SDS011;9456;47.824;16.228;2024-03-08T09:15:28;18.40;;;16.47;;
18653;SDS011;9456;47.824;16.228;2024-03-08T09:17:56;19.63;;;17.63;;
18653;SDS011;9456;47.824;16.228;2024-03-08T09:20:24;19.73;;;17.70;;
18653;SDS011;9456;47.824;16.228;2024-03-08T09:22:52;19.70;;;17.70;;
18653;SDS011;9456;47.824;16.228;2024-03-08T09:25:22;20.37;;;18.37;;
18653;SDS011;9456;47.824;16.228;2024-03-08T09:27:50;20.23;;;18.13;;
18653;SDS011;9456;47.824;16.228;2024-03-08T09:30:18;19.77;;;17.80;;
18653;SDS011;9456;47.824;16.228;2024-03-08T09:32:46;19.57;;;17.67;;
18653;SDS011;9456;47.824;16.228;2024-03-08T09:35:14;19.77;;;17.80;;
18653;SDS011;9456;47.824;16.228;2024-03-08T09:37:42;19.90;;;17.77;;
18653;SDS011;9456;47.824;16.228;2024-03-08T09:40:10;19.87;;;17.87;;
18653;SDS011;9456;47.824;16.228;2024-03-08T09:42:38;20.60;;;18.47;;
18653;SDS011;9456;47.824;16.228;2024-03-08T09:45:08;20.03;;;18.03;;
18653;SDS011;9456;47.824;16.228;2024-03-08T09:47:35;20.07;;;17.77;;
18653;SDS011;9456;47.824;16.228;2024-03-08T09:50:03;19.67;;;17.67;;
18653;SDS011;9456;47.824;16.228;2024-03-08T09:52:31;19.37;;;17.43;;
18653;SDS011;9456;47.824;16.228;2024-03-08T09:54:59;16.83;;;15.03;;
18653;SDS011;9456;47.824;16.228;2024-03-08T09:57:27;16.30;;;14.70;;
18653;SDS011;9456;47.824;16.228;2024-03-08T09:59:55;21.23;;;18.93;;
18653;SDS011;9456;47.824;16.228;2024-03-08T10:02:23;20.73;;;18.53;;
18653;SDS011;9456;47.824;16.228;2024-03-08T10:04:51;20.40;;;18.10;;
18653;SDS011;9456;47.824;16.228;2024-03-08T10:07:19;20.20;;;17.90;;
18653;SDS011;9456;47.824;16.228;2024-03-08T10:09:47;20.57;;;17.63;;
18653;SDS011;9456;47.824;16.228;2024-03-08T10:12:17;24.97;;;20.40;;
18653;SDS011;9456;47.824;16.228;2024-03-08T10:14:45;20.97;;;17.47;;
18653;SDS011;9456;47.824;16.228;2024-03-08T10:17:13;20.93;;;18.57;;
18653;SDS011;9456;47.824;16.228;2024-03-08T10:19:45;21.90;;;18.43;;
18653;SDS011;9456;47.824;16.228;2024-03-08T10:22:15;23.47;;;19.13;;
18653;SDS011;9456;47.824;16.228;2024-03-08T10:24:51;20.60;;;18.37;;
18653;SDS011;9456;47.824;16.228;2024-03-08T10:27:19;19.67;;;17.57;;
18653;SDS011;9456;47.824;16.228;2024-03-08T10:29:48;20.10;;;18.00;;
18653;SDS011;9456;47.824;16.228;2024-03-08T10:32:15;19.47;;;17.40;;
18653;SDS011;9456;47.824;16.228;2024-03-08T10:34:44;22.67;;;18.30;;
18653;SDS011;9456;47.824;16.228;2024-03-08T10:37:12;20.23;;;17.07;;
18653;SDS011;9456;47.824;16.228;2024-03-08T10:39:40;21.37;;;17.70;;
18653;SDS011;9456;47.824;16.228;2024-03-08T10:42:08;19.10;;;17.07;;
18653;SDS011;9456;47.824;16.228;2024-03-08T10:44:46;20.23;;;16.67;;
18653;SDS011;9456;47.824;16.228;2024-03-08T10:47:12;19.97;;;17.87;;
18653;SDS011;9456;47.824;16.228;2024-03-08T10:49:39;20.10;;;17.93;;
18653;SDS011;9456;47.824;16.228;2024-03-08T10:52:06;22.13;;;17.73;;
18653;SDS011;9456;47.824;16.228;2024-03-08T10:54:36;23.70;;;17.37;;
18653;SDS011;9456;47.824;16.228;2024-03-08T10:57:03;17.80;;;15.90;;
18653;SDS011;9456;47.824;16.228;2024-03-08T10:59:31;15.10;;;13.50;;
18653;SDS011;9456;47.824;16.228;2024-03-08T11:01:59;11.67;;;10.47;;
18653;SDS011;9456;47.824;16.228;2024-03-08T11:04:27;7.90;;;7.20;;
18653;SDS011;9456;47.824;16.228;2024-03-08T11:07:01;8.90;;;8.00;;
18653;SDS011;9456;47.824;16.228;2024-03-08T11:09:31;7.13;;;6.53;;
18653;SDS011;9456;47.824;16.228;2024-03-08T11:14:45;6.83;;;6.23;;
18653;SDS011;9456;47.824;16.228;2024-03-08T11:17:14;6.40;;;5.80;;
18653;SDS011;9456;47.824;16.228;2024-03-08T11:19:46;6.97;;;6.37;;
18653;SDS011;9456;47.824;16.228;2024-03-08T11:22:21;6.57;;;6.03;;
18653;SDS011;9456;47.824;16.228;2024-03-08T11:24:59;7.23;;;6.63;;
18653;SDS011;9456;47.824;16.228;2024-03-08T11:27:29;7.03;;;6.43;;
18653;SDS011;9456;47.824;16.228;2024-03-08T11:30:01;6.40;;;5.90;;
18653;SDS011;9456;47.824;16.228;2024-03-08T11:32:33;8.27;;;7.57;;
18653;SDS011;9456;47.824;16.228;2024-03-08T11:35:01;7.73;;;7.07;;
18653;SDS011;9456;47.824;16.228;2024-03-08T11:37:30;7.83;;;7.17;;
18653;SDS011;9456;47.824;16.228;2024-03-08T11:39:58;7.43;;;6.83;;
18653;SDS011;9456;47.824;16.228;2024-03-08T11:42:26;7.70;;;7.00;;
18653;SDS011;9456;47.824;16.228;2024-03-08T11:44:54;7.27;;;6.67;;
18653;SDS011;9456;47.824;16.228;2024-03-08T11:47:22;7.77;;;7.00;;
18653;SDS011;9456;47.824;16.228;2024-03-08T11:49:50;7.53;;;6.83;;
18653;SDS011;9456;47.824;16.228;2024-03-08T11:52:18;8.20;;;7.50;;
18653;SDS011;9456;47.824;16.228;2024-03-08T11:54:51;7.70;;;6.93;;
18653;SDS011;9456;47.824;16.228;2024-03-08T11:57:18;8.50;;;7.70;;
18653;SDS011;9456;47.824;16.228;2024-03-08T11:59:50;8.50;;;7.70;;
18653;SDS011;9456;47.824;16.228;2024-03-08T12:02:18;7.53;;;6.83;;
18653;SDS011;9456;47.824;16.228;2024-03-08T12:04:47;7.97;;;7.17;;
18653;SDS011;9456;47.824;16.228;2024-03-08T12:07:15;6.83;;;6.23;;
18653;SDS011;9456;47.824;16.228;2024-03-08T12:09:43;7.07;;;6.47;;
18653;SDS011;9456;47.824;16.228;2024-03-08T12:12:14;7.03;;;6.43;;
18653;SDS011;9456;47.824;16.228;2024-03-08T12:14:43;7.63;;;6.93;;
18653;SDS011;9456;47.824;16.228;2024-03-08T12:17:12;8.80;;;7.57;;
18653;SDS011;9456;47.824;16.228;2024-03-08T12:19:40;7.47;;;6.77;;
18653;SDS011;9456;47.824;16.228;2024-03-08T12:22:08;6.67;;;6.10;;
18653;SDS011;9456;47.824;16.228;2024-03-08T12:24:37;6.97;;;6.37;;
18653;SDS011;9456;47.824;16.228;2024-03-08T12:27:18;7.50;;;6.80;;
18653;SDS011;9456;47.824;16.228;2024-03-08T12:29:46;7.93;;;7.13;;
18653;SDS011;9456;47.824;16.228;2024-03-08T12:32:15;6.60;;;6.00;;
18653;SDS011;9456;47.824;16.228;2024-03-08T12:34:42;8.10;;;7.30;;
18653;SDS011;9456;47.824;16.228;2024-03-08T12:37:10;7.70;;;7.00;;
18653;SDS011;9456;47.824;16.228;2024-03-08T12:39:40;7.57;;;6.87;;
18653;SDS011;9456;47.824;16.228;2024-03-08T12:42:06;7.27;;;6.60;;
18653;SDS011;9456;47.824;16.228;2024-03-08T12:44:34;6.90;;;6.30;;
18653;SDS011;9456;47.824;16.228;2024-03-08T12:47:02;6.53;;;5.93;;
18653;SDS011;9456;47.824;16.228;2024-03-08T12:49:30;5.80;;;5.30;;
18653;SDS011;9456;47.824;16.228;2024-03-08T12:51:58;6.03;;;5.13;;
18653;SDS011;9456;47.824;16.228;2024-03-08T12:54:26;5.77;;;5.17;;
18653;SDS011;9456;47.824;16.228;2024-03-08T12:56:55;6.03;;;5.53;;
18653;SDS011;9456;47.824;16.228;2024-03-08T12:59:23;5.93;;;5.40;;
18653;SDS011;9456;47.824;16.228;2024-03-08T13:01:51;6.30;;;5.70;;
18653;SDS011;9456;47.824;16.228;2024-03-08T13:04:19;6.43;;;5.83;;
18653;SDS011;9456;47.824;16.228;2024-03-08T13:06:47;6.00;;;5.50;;
18653;SDS011;9456;47.824;16.228;2024-03-08T13:09:15;6.00;;;5.50;;
18653;SDS011;9456;47.824;16.228;2024-03-08T13:11:44;6.37;;;5.77;;
18653;SDS011;9456;47.824;16.228;2024-03-08T13:17:15;6.63;;;6.03;;
18653;SDS011;9456;47.824;16.228;2024-03-08T13:19:44;6.07;;;5.50;;
18653;SDS011;9456;47.824;16.228;2024-03-08T13:22:12;6.30;;;5.80;;
18653;SDS011;9456;47.824;16.228;2024-03-08T13:24:40;6.33;;;5.83;;
18653;SDS011;9456;47.824;16.228;2024-03-08T13:27:08;6.27;;;5.70;;
18653;SDS011;9456;47.824;16.228;2024-03-08T13:29:44;6.20;;;5.70;;
18653;SDS011;9456;47.824;16.228;2024-03-08T13:32:12;5.93;;;5.40;;
18653;SDS011;9456;47.824;16.228;2024-03-08T13:34:41;8.13;;;5.47;;
18653;SDS011;9456;47.824;16.228;2024-03-08T13:37:09;6.50;;;6.00;;
18653;SDS011;9456;47.824;16.228;2024-03-08T13:39:37;5.87;;;5.37;;
18653;SDS011;9456;47.824;16.228;2024-03-08T13:42:08;5.77;;;5.27;;
18653;SDS011;9456;47.824;16.228;2024-03-08T13:44:37;6.67;;;6.07;;
18653;SDS011;9456;47.824;16.228;2024-03-08T13:47:05;5.87;;;5.37;;
18653;SDS011;9456;47.824;16.228;2024-03-08T13:49:33;6.20;;;5.60;;
18653;SDS011;9456;47.824;16.228;2024-03-08T13:52:01;6.07;;;5.57;;
18653;SDS011;9456;47.824;16.228;2024-03-08T13:54:29;6.30;;;5.70;;
18653;SDS011;9456;47.824;16.228;2024-03-08T13:56:57;6.50;;;5.33;;
18653;SDS011;9456;47.824;16.228;2024-03-08T13:59:25;5.93;;;5.37;;
18653;SDS011;9456;47.824;16.228;2024-03-08T14:01:53;5.30;;;4.80;;
18653;SDS011;9456;47.824;16.228;2024-03-08T14:04:21;5.03;;;4.63;;
18653;SDS011;9456;47.824;16.228;2024-03-08T14:06:49;5.43;;;4.93;;
18653;SDS011;9456;47.824;16.228;2024-03-08T14:09:17;5.53;;;5.07;;
18653;SDS011;9456;47.824;16.228;2024-03-08T14:11:45;6.47;;;5.97;;
18653;SDS011;9456;47.824;16.228;2024-03-08T14:14:13;6.27;;;5.67;;
18653;SDS011;9456;47.824;16.228;2024-03-08T14:16:41;6.43;;;5.80;;
18653;SDS011;9456;47.824;16.228;2024-03-08T14:19:09;5.97;;;5.47;;
18653;SDS011;9456;47.824;16.228;2024-03-08T14:21:37;7.30;;;6.60;;
18653;SDS011;9456;47.824;16.228;2024-03-08T14:24:05;7.10;;;6.40;;
18653;SDS011;9456;47.824;16.228;2024-03-08T14:26:33;6.60;;;6.00;;
18653;SDS011;9456;47.824;16.228;2024-03-08T14:29:01;7.20;;;6.60;;
18653;SDS011;9456;47.824;16.228;2024-03-08T14:31:30;7.00;;;6.37;;
18653;SDS011;9456;47.824;16.228;2024-03-08T14:33:58;7.60;;;6.50;;
18653;SDS011;9456;47.824;16.228;2024-03-08T14:36:26;6.77;;;6.17;;
18653;SDS011;9456;47.824;16.228;2024-03-08T14:38:54;6.20;;;5.60;;
18653;SDS011;9456;47.824;16.228;2024-03-08T14:41:22;6.47;;;5.87;;
18653;SDS011;9456;47.824;16.228;2024-03-08T14:43:50;5.77;;;5.27;;
18653;SDS011;9456;47.824;16.228;2024-03-08T14:46:19;5.30;;;4.90;;